sensor_id;sensor_type;location;lat;lon;timestamp;pressure;altitude;pressure_sealevel;temperature;humidity
22580;BME280;11456;47.030;15.396;2023-09-07T00:00:47;98258.50;;;16.88;100.00
22580;BME280;11456;47.030;15.396;2023-09-07T00:03:14;98254.75;;;16.89;100.00
22580;BME280;11456;47.030;15.396;2023-09-07T00:05:41;98249.03;;;16.75;100.00
22580;BME280;11456;47.030;15.396;2023-09-07T00:08:08;98252.09;;;16.64;100.00
22580;BME280;11456;47.030;15.396;2023-09-07T00:10:35;98253.16;;;16.63;100.00
22580;BME280;11456;47.030;15.396;2023-09-07T00:13:03;98248.44;;;16.41;100.00
22580;BME280;11456;47.030;15.396;2023-09-07T00:15:36;98243.59;;;16.59;100.00
22580;BME280;11456;47.030;15.396;2023-09-07T00:18:03;98247.19;;;16.68;100.00
22580;BME280;11456;47.030;15.396;2023-09-07T00:20:29;98248.38;;;16.65;100.00
22580;BME280;11456;47.030;15.396;2023-09-07T00:22:56;98247.19;;;16.68;100.00
22580;BME280;11456;47.030;15.396;2023-09-07T00:25:23;98241.09;;;16.58;100.00
22580;BME280;11456;47.030;15.396;2023-09-07T00:27:49;98244.69;;;16.50;100.00
22580;BME280;11456;47.030;15.396;2023-09-07T00:30:16;98247.03;;;16.45;100.00
22580;BME280;11456;47.030;15.396;2023-09-07T00:32:43;98246.38;;;16.51;100.00
22580;BME280;11456;47.030;15.396;2023-09-07T00:35:09;98249.16;;;16.27;100.00
22580;BME280;11456;47.030;15.396;2023-09-07T00:37:37;98235.84;;;16.48;100.00
22580;BME280;11456;47.030;15.396;2023-09-07T00:40:04;98242.59;;;16.52;100.00
22580;BME280;11456;47.030;15.396;2023-09-07T00:42:36;98247.41;;;16.42;100.00
22580;BME280;11456;47.030;15.396;2023-09-07T00:45:03;98244.69;;;16.42;100.00
22580;BME280;11456;47.030;15.396;2023-09-07T00:47:33;98235.34;;;16.44;100.00
22580;BME280;11456;47.030;15.396;2023-09-07T00:50:05;98227.00;;;16.46;100.00
22580;BME280;11456;47.030;15.396;2023-09-07T00:52:34;98228.38;;;16.50;100.00
22580;BME280;11456;47.030;15.396;2023-09-07T00:55:02;98225.03;;;16.32;100.00
22580;BME280;11456;47.030;15.396;2023-09-07T00:57:31;98233.84;;;16.34;100.00
22580;BME280;11456;47.030;15.396;2023-09-07T00:59:58;98229.47;;;16.25;100.00
22580;BME280;11456;47.030;15.396;2023-09-07T01:02:25;98224.38;;;16.22;100.00
22580;BME280;11456;47.030;15.396;2023-09-07T01:04:52;98226.38;;;16.28;100.00
22580;BME280;11456;47.030;15.396;2023-09-07T01:07:50;98223.72;;;16.12;100.00
22580;BME280;11456;47.030;15.396;2023-09-07T01:10:20;98225.84;;;16.32;100.00
22580;BME280;11456;47.030;15.396;2023-09-07T01:12:49;98229.31;;;16.18;100.00
22580;BME280;11456;47.030;15.396;2023-09-07T01:15:15;98222.34;;;16.24;100.00
22580;BME280;11456;47.030;15.396;2023-09-07T01:17:43;98221.00;;;16.03;100.00
22580;BME280;11456;47.030;15.396;2023-09-07T01:20:13;98217.59;;;16.18;100.00
22580;BME280;11456;47.030;15.396;2023-09-07T01:22:44;98219.28;;;16.19;100.00
22580;BME280;11456;47.030;15.396;2023-09-07T01:25:11;98215.25;;;16.07;100.00
22580;BME280;11456;47.030;15.396;2023-09-07T01:27:38;98214.56;;;15.88;100.00
22580;BME280;11456;47.030;15.396;2023-09-07T01:30:05;98217.91;;;16.23;100.00
22580;BME280;11456;47.030;15.396;2023-09-07T01:32:32;98219.22;;;16.35;100.00
22580;BME280;11456;47.030;15.396;2023-09-07T01:34:59;98217.47;;;15.95;100.00
22580;BME280;11456;47.030;15.396;2023-09-07T01:37:28;98211.84;;;15.96;100.00
22580;BME280;11456;47.030;15.396;2023-09-07T01:39:55;98214.50;;;16.21;100.00
22580;BME280;11456;47.030;15.396;2023-09-07T01:42:22;98206.06;;;16.08;100.00
22580;BME280;11456;47.030;15.396;2023-09-07T01:44:48;98206.88;;;16.16;100.00
22580;BME280;11456;47.030;15.396;2023-09-07T01:47:15;98215.53;;;16.20;100.00
22580;BME280;11456;47.030;15.396;2023-09-07T01:49:42;98216.91;;;16.24;100.00
22580;BME280;11456;47.030;15.396;2023-09-07T01:52:09;98210.00;;;15.97;100.00
22580;BME280;11456;47.030;15.396;2023-09-07T01:54:36;98205.19;;;16.07;100.00
22580;BME280;11456;47.030;15.396;2023-09-07T01:57:02;98206.41;;;16.13;100.00
22580;BME280;11456;47.030;15.396;2023-09-07T01:59:29;98216.91;;;16.16;100.00
22580;BME280;11456;47.030;15.396;2023-09-07T02:01:56;98208.13;;;15.89;100.00
22580;BME280;11456;47.030;15.396;2023-09-07T02:04:22;98218.81;;;15.99;100.00
22580;BME280;11456;47.030;15.396;2023-09-07T02:06:49;98211.69;;;15.82;100.00
22580;BME280;11456;47.030;15.396;2023-09-07T02:09:16;98206.44;;;15.88;100.00
22580;BME280;11456;47.030;15.396;2023-09-07T02:11:42;98203.75;;;15.64;100.00
22580;BME280;11456;47.030;15.396;2023-09-07T02:14:09;98202.72;;;15.65;100.00
22580;BME280;11456;47.030;15.396;2023-09-07T02:16:36;98213.59;;;15.57;100.00
22580;BME280;11456;47.030;15.396;2023-09-07T02:19:06;98209.19;;;15.64;100.00
22580;BME280;11456;47.030;15.396;2023-09-07T02:21:36;98213.44;;;15.67;100.00
22580;BME280;11456;47.030;15.396;2023-09-07T02:24:02;98208.66;;;15.69;100.00
22580;BME280;11456;47.030;15.396;2023-09-07T02:26:29;98214.25;;;15.75;100.00
22580;BME280;11456;47.030;15.396;2023-09-07T02:28:56;98210.88;;;15.65;100.00
22580;BME280;11456;47.030;15.396;2023-09-07T02:31:23;98207.31;;;15.56;100.00
22580;BME280;11456;47.030;15.396;2023-09-07T02:33:50;98204.75;;;15.39;100.00
22580;BME280;11456;47.030;15.396;2023-09-07T02:36:17;98206.09;;;15.27;100.00
22580;BME280;11456;47.030;15.396;2023-09-07T02:38:43;98212.94;;;15.55;100.00
22580;BME280;11456;47.030;15.396;2023-09-07T02:41:10;98204.94;;;15.53;100.00
22580;BME280;11456;47.030;15.396;2023-09-07T02:43:37;98204.38;;;15.25;100.00
22580;BME280;11456;47.030;15.396;2023-09-07T02:46:03;98209.50;;;15.29;100.00
22580;BME280;11456;47.030;15.396;2023-09-07T02:48:30;98209.31;;;15.30;100.00
22580;BME280;11456;47.030;15.396;2023-09-07T02:50:57;98201.69;;;15.42;100.00
22580;BME280;11456;47.030;15.396;2023-09-07T02:53:26;98211.34;;;15.44;100.00
22580;BME280;11456;47.030;15.396;2023-09-07T02:55:52;98206.06;;;15.18;100.00
22580;BME280;11456;47.030;15.396;2023-09-07T02:58:19;98207.13;;;15.34;100.00
22580;BME280;11456;47.030;15.396;2023-09-07T03:00:46;98214.56;;;15.32;100.00
22580;BME280;11456;47.030;15.396;2023-09-07T03:03:16;98209.50;;;15.45;100.00
22580;BME280;11456;47.030;15.396;2023-09-07T03:05:45;98210.88;;;15.49;100.00
22580;BME280;11456;47.030;15.396;2023-09-07T03:08:12;98218.38;;;15.55;100.00
22580;BME280;11456;47.030;15.396;2023-09-07T03:10:40;98215.78;;;15.45;100.00
22580;BME280;11456;47.030;15.396;2023-09-07T03:13:08;98215.09;;;15.35;100.00
22580;BME280;11456;47.030;15.396;2023-09-07T03:15:35;98214.91;;;15.45;100.00
22580;BME280;11456;47.030;15.396;2023-09-07T03:18:05;98213.94;;;15.54;100.00
22580;BME280;11456;47.030;15.396;2023-09-07T03:20:33;98209.16;;;15.32;100.00
22580;BME280;11456;47.030;15.396;2023-09-07T03:23:01;98209.81;;;15.25;100.00
22580;BME280;11456;47.030;15.396;2023-09-07T03:25:28;98211.16;;;15.13;100.00
22580;BME280;11456;47.030;15.396;2023-09-07T03:27:55;98216.28;;;15.33;100.00
22580;BME280;11456;47.030;15.396;2023-09-07T03:30:22;98208.09;;;15.08;100.00
22580;BME280;11456;47.030;15.396;2023-09-07T03:32:49;98209.81;;;15.17;100.00
22580;BME280;11456;47.030;15.396;2023-09-07T03:35:16;98210.47;;;15.03;100.00
22580;BME280;11456;47.030;15.396;2023-09-07T03:37:43;98208.78;;;15.02;100.00
22580;BME280;11456;47.030;15.396;2023-09-07T03:40:10;98213.16;;;14.95;100.00
22580;BME280;11456;47.030;15.396;2023-09-07T03:42:38;98204.00;;;15.04;100.00
22580;BME280;11456;47.030;15.396;2023-09-07T03:45:06;98208.59;;;14.96;100.00
22580;BME280;11456;47.030;15.396;2023-09-07T03:47:33;98212.78;;;14.82;100.00
22580;BME280;11456;47.030;15.396;2023-09-07T03:50:01;98211.13;;;14.89;100.00
22580;BME280;11456;47.030;15.396;2023-09-07T03:52:29;98211.41;;;14.70;100.00
22580;BME280;11456;47.030;15.396;2023-09-07T03:55:00;98213.50;;;15.00;100.00
22580;BME280;11456;47.030;15.396;2023-09-07T03:57:27;98206.72;;;14.88;100.00
22580;BME280;11456;47.030;15.396;2023-09-07T03:59:55;98215.84;;;14.87;100.00
22580;BME280;11456;47.030;15.396;2023-09-07T04:02:23;98209.25;;;14.90;100.00
22580;BME280;11456;47.030;15.396;2023-09-07T04:04:53;98220.56;;;14.69;100.00
22580;BME280;11456;47.030;15.396;2023-09-07T04:07:20;98217.53;;;14.72;100.00
22580;BME280;11456;47.030;15.396;2023-09-07T04:09:47;98222.97;;;14.88;100.00
22580;BME280;11456;47.030;15.396;2023-09-07T04:12:14;98216.50;;;14.81;100.00
22580;BME280;11456;47.030;15.396;2023-09-07T04:14:41;98227.38;;;14.81;100.00
22580;BME280;11456;47.030;15.396;2023-09-07T04:17:09;98220.91;;;14.66;100.00
22580;BME280;11456;47.030;15.396;2023-09-07T04:19:36;98224.88;;;14.54;100.00
22580;BME280;11456;47.030;15.396;2023-09-07T04:22:03;98234.75;;;14.63;100.00
22580;BME280;11456;47.030;15.396;2023-09-07T04:24:29;98236.16;;;14.75;100.00
22580;BME280;11456;47.030;15.396;2023-09-07T04:27:01;98236.50;;;14.80;100.00
22580;BME280;11456;47.030;15.396;2023-09-07T04:29:29;98238.81;;;14.59;100.00
22580;BME280;11456;47.030;15.396;2023-09-07T04:31:56;98241.63;;;14.83;100.00
22580;BME280;11456;47.030;15.396;2023-09-07T04:34:24;98239.59;;;14.93;100.00
22580;BME280;11456;47.030;15.396;2023-09-07T04:36:53;98229.75;;;14.92;100.00
22580;BME280;11456;47.030;15.396;2023-09-07T04:39:19;98240.59;;;14.92;100.00
22580;BME280;11456;47.030;15.396;2023-09-07T04:41:46;98239.94;;;14.90;100.00
22580;BME280;11456;47.030;15.396;2023-09-07T04:44:14;98234.50;;;14.82;100.00
22580;BME280;11456;47.030;15.396;2023-09-07T04:46:41;98238.28;;;14.97;100.00
22580;BME280;11456;47.030;15.396;2023-09-07T04:49:09;98243.41;;;15.16;100.00
22580;BME280;11456;47.030;15.396;2023-09-07T04:51:36;98239.97;;;15.06;100.00
22580;BME280;11456;47.030;15.396;2023-09-07T04:54:03;98242.66;;;14.98;100.00
22580;BME280;11456;47.030;15.396;2023-09-07T04:56:30;98251.16;;;15.11;100.00
22580;BME280;11456;47.030;15.396;2023-09-07T04:58:57;98252.56;;;15.15;100.00
22580;BME280;11456;47.030;15.396;2023-09-07T05:01:25;98248.84;;;15.33;100.00
22580;BME280;11456;47.030;15.396;2023-09-07T05:03:53;98254.13;;;15.42;100.00
22580;BME280;11456;47.030;15.396;2023-09-07T05:06:21;98254.09;;;15.50;100.00
22580;BME280;11456;47.030;15.396;2023-09-07T05:08:50;98252.63;;;15.64;100.00
22580;BME280;11456;47.030;15.396;2023-09-07T05:11:17;98256.53;;;15.70;100.00
22580;BME280;11456;47.030;15.396;2023-09-07T05:13:43;98256.19;;;15.89;100.00
22580;BME280;11456;47.030;15.396;2023-09-07T05:16:10;98263.16;;;15.99;100.00
22580;BME280;11456;47.030;15.396;2023-09-07T05:18:37;98274.34;;;15.96;100.00
22580;BME280;11456;47.030;15.396;2023-09-07T05:21:14;98271.25;;;16.08;100.00
22580;BME280;11456;47.030;15.396;2023-09-07T05:23:42;98274.97;;;16.23;100.00
22580;BME280;11456;47.030;15.396;2023-09-07T05:26:09;98272.41;;;16.37;100.00
22580;BME280;11456;47.030;15.396;2023-09-07T05:28:36;98262.00;;;16.49;100.00
22580;BME280;11456;47.030;15.396;2023-09-07T05:31:02;98275.75;;;16.56;100.00
22580;BME280;11456;47.030;15.396;2023-09-07T05:33:31;98267.78;;;16.46;100.00
22580;BME280;11456;47.030;15.396;2023-09-07T05:35:58;98266.59;;;16.57;100.00
22580;BME280;11456;47.030;15.396;2023-09-07T05:38:24;98267.09;;;16.60;100.00
22580;BME280;11456;47.030;15.396;2023-09-07T05:40:52;98268.88;;;16.84;100.00
22580;BME280;11456;47.030;15.396;2023-09-07T05:43:22;98264.53;;;16.98;100.00
22580;BME280;11456;47.030;15.396;2023-09-07T05:45:49;98267.03;;;17.38;100.00
22580;BME280;11456;47.030;15.396;2023-09-07T05:48:16;98274.16;;;17.70;100.00
22580;BME280;11456;47.030;15.396;2023-09-07T05:50:44;98266.84;;;18.08;100.00
22580;BME280;11456;47.030;15.396;2023-09-07T05:53:12;98271.03;;;18.33;100.00
22580;BME280;11456;47.030;15.396;2023-09-07T05:55:39;98273.66;;;18.27;100.00
22580;BME280;11456;47.030;15.396;2023-09-07T05:58:07;98285.94;;;18.08;100.00
22580;BME280;11456;47.030;15.396;2023-09-07T06:00:39;98286.59;;;18.77;100.00
22580;BME280;11456;47.030;15.396;2023-09-07T06:03:07;98278.00;;;18.51;100.00
22580;BME280;11456;47.030;15.396;2023-09-07T06:05:37;98272.00;;;18.99;100.00
22580;BME280;11456;47.030;15.396;2023-09-07T06:08:06;98276.19;;;19.16;100.00
22580;BME280;11456;47.030;15.396;2023-09-07T06:10:34;98275.06;;;19.11;100.00
22580;BME280;11456;47.030;15.396;2023-09-07T06:13:02;98276.88;;;19.40;100.00
22580;BME280;11456;47.030;15.396;2023-09-07T06:15:30;98279.19;;;19.21;100.00
22580;BME280;11456;47.030;15.396;2023-09-07T06:17:57;98274.31;;;19.02;100.00
22580;BME280;11456;47.030;15.396;2023-09-07T06:20:25;98289.97;;;19.80;100.00
22580;BME280;11456;47.030;15.396;2023-09-07T06:22:53;98289.78;;;20.31;100.00
22580;BME280;11456;47.030;15.396;2023-09-07T06:25:20;98286.44;;;20.08;100.00
22580;BME280;11456;47.030;15.396;2023-09-07T06:27:49;98291.78;;;20.71;100.00
22580;BME280;11456;47.030;15.396;2023-09-07T06:30:15;98289.13;;;20.85;100.00
22580;BME280;11456;47.030;15.396;2023-09-07T06:32:42;98298.69;;;21.36;100.00
22580;BME280;11456;47.030;15.396;2023-09-07T06:35:10;98300.38;;;21.37;99.65
22580;BME280;11456;47.030;15.396;2023-09-07T06:37:37;98288.81;;;21.48;99.90
22580;BME280;11456;47.030;15.396;2023-09-07T06:40:08;98298.03;;;22.21;95.76
22580;BME280;11456;47.030;15.396;2023-09-07T06:42:37;98296.13;;;22.28;93.19
22580;BME280;11456;47.030;15.396;2023-09-07T06:45:08;98301.84;;;22.33;92.51
22580;BME280;11456;47.030;15.396;2023-09-07T06:47:36;98302.66;;;22.01;93.82
22580;BME280;11456;47.030;15.396;2023-09-07T06:50:04;98297.78;;;22.69;93.03
22580;BME280;11456;47.030;15.396;2023-09-07T06:52:31;98311.44;;;21.83;96.30
22580;BME280;11456;47.030;15.396;2023-09-07T06:54:58;98301.59;;;22.68;91.94
22580;BME280;11456;47.030;15.396;2023-09-07T06:57:25;98303.25;;;22.95;87.91
22580;BME280;11456;47.030;15.396;2023-09-07T06:59:52;98301.56;;;23.58;81.51
22580;BME280;11456;47.030;15.396;2023-09-07T07:02:19;98301.72;;;24.02;81.24
22580;BME280;11456;47.030;15.396;2023-09-07T07:04:46;98302.50;;;23.33;82.48
22580;BME280;11456;47.030;15.396;2023-09-07T07:07:15;98303.47;;;22.87;88.91
22580;BME280;11456;47.030;15.396;2023-09-07T07:09:41;98302.34;;;23.72;83.36
22580;BME280;11456;47.030;15.396;2023-09-07T07:12:08;98309.63;;;23.53;84.03
22580;BME280;11456;47.030;15.396;2023-09-07T07:14:37;98302.41;;;23.59;85.51
22580;BME280;11456;47.030;15.396;2023-09-07T07:17:03;98303.38;;;25.08;75.55
22580;BME280;11456;47.030;15.396;2023-09-07T07:19:32;98311.69;;;23.65;84.19
22580;BME280;11456;47.030;15.396;2023-09-07T07:22:01;98305.03;;;24.66;80.31
22580;BME280;11456;47.030;15.396;2023-09-07T07:24:28;98307.72;;;25.34;75.89
22580;BME280;11456;47.030;15.396;2023-09-07T07:26:55;98314.03;;;24.55;76.04
22580;BME280;11456;47.030;15.396;2023-09-07T07:29:22;98318.44;;;25.61;72.33
22580;BME280;11456;47.030;15.396;2023-09-07T07:31:48;98311.19;;;24.87;74.19
22580;BME280;11456;47.030;15.396;2023-09-07T07:34:15;98311.25;;;25.23;77.47
22580;BME280;11456;47.030;15.396;2023-09-07T07:36:43;98316.13;;;26.36;67.54
22580;BME280;11456;47.030;15.396;2023-09-07T07:39:09;98315.06;;;26.18;67.33
22580;BME280;11456;47.030;15.396;2023-09-07T07:41:36;98320.28;;;26.26;66.94
22580;BME280;11456;47.030;15.396;2023-09-07T07:44:07;98315.50;;;24.83;78.93
22580;BME280;11456;47.030;15.396;2023-09-07T07:46:34;98322.88;;;25.07;70.69
22580;BME280;11456;47.030;15.396;2023-09-07T07:49:01;98318.59;;;24.43;75.90
22580;BME280;11456;47.030;15.396;2023-09-07T07:51:28;98323.47;;;25.82;66.42
22580;BME280;11456;47.030;15.396;2023-09-07T07:53:55;98313.78;;;24.82;72.36
22580;BME280;11456;47.030;15.396;2023-09-07T07:56:25;98315.28;;;25.75;66.63
22580;BME280;11456;47.030;15.396;2023-09-07T07:58:54;98316.00;;;26.12;63.72
22580;BME280;11456;47.030;15.396;2023-09-07T08:01:21;98314.06;;;26.01;65.02
22580;BME280;11456;47.030;15.396;2023-09-07T08:03:51;98321.16;;;26.39;61.33
22580;BME280;11456;47.030;15.396;2023-09-07T08:06:19;98318.59;;;25.95;60.53
22580;BME280;11456;47.030;15.396;2023-09-07T08:08:46;98312.78;;;26.80;62.20
22580;BME280;11456;47.030;15.396;2023-09-07T08:11:13;98312.09;;;27.20;60.30
22580;BME280;11456;47.030;15.396;2023-09-07T08:13:41;98321.59;;;26.89;55.11
22580;BME280;11456;47.030;15.396;2023-09-07T08:16:08;98312.38;;;27.46;54.93
22580;BME280;11456;47.030;15.396;2023-09-07T08:18:40;98313.06;;;26.90;53.40
22580;BME280;11456;47.030;15.396;2023-09-07T08:21:08;98312.03;;;27.43;55.74
22580;BME280;11456;47.030;15.396;2023-09-07T08:23:36;98317.72;;;28.05;50.13
22580;BME280;11456;47.030;15.396;2023-09-07T08:26:03;98314.56;;;27.44;48.70
22580;BME280;11456;47.030;15.396;2023-09-07T08:28:32;98319.50;;;28.11;47.03
22580;BME280;11456;47.030;15.396;2023-09-07T08:30:59;98313.34;;;28.37;46.26
22580;BME280;11456;47.030;15.396;2023-09-07T08:33:28;98304.13;;;28.15;46.66
22580;BME280;11456;47.030;15.396;2023-09-07T08:35:59;98306.31;;;28.63;48.19
22580;BME280;11456;47.030;15.396;2023-09-07T08:38:27;98313.91;;;29.39;46.51
22580;BME280;11456;47.030;15.396;2023-09-07T08:41:00;98307.84;;;29.04;47.32
22580;BME280;11456;47.030;15.396;2023-09-07T08:43:28;98308.41;;;29.06;44.78
22580;BME280;11456;47.030;15.396;2023-09-07T08:46:09;98314.56;;;28.41;48.42
22580;BME280;11456;47.030;15.396;2023-09-07T08:48:42;98314.88;;;28.95;45.01
22580;BME280;11456;47.030;15.396;2023-09-07T08:51:10;98312.53;;;30.07;41.00
22580;BME280;11456;47.030;15.396;2023-09-07T08:53:39;98305.34;;;29.63;39.69
22580;BME280;11456;47.030;15.396;2023-09-07T08:56:07;98313.88;;;28.34;41.91
22580;BME280;11456;47.030;15.396;2023-09-07T08:58:36;98311.69;;;27.79;45.75
22580;BME280;11456;47.030;15.396;2023-09-07T09:01:03;98303.28;;;28.31;47.24
22580;BME280;11456;47.030;15.396;2023-09-07T09:03:35;98302.19;;;28.15;46.08
22580;BME280;11456;47.030;15.396;2023-09-07T09:06:03;98303.38;;;28.69;44.10
22580;BME280;11456;47.030;15.396;2023-09-07T09:08:48;98302.63;;;27.96;44.98
22580;BME280;11456;47.030;15.396;2023-09-07T09:11:19;98301.59;;;27.73;46.81
22580;BME280;11456;47.030;15.396;2023-09-07T09:13:48;98304.00;;;27.81;47.46
22580;BME280;11456;47.030;15.396;2023-09-07T09:16:15;98302.28;;;28.37;44.81
22580;BME280;11456;47.030;15.396;2023-09-07T09:18:53;98299.44;;;28.82;45.11
22580;BME280;11456;47.030;15.396;2023-09-07T09:21:25;98298.38;;;29.22;39.88
22580;BME280;11456;47.030;15.396;2023-09-07T09:23:54;98298.53;;;29.97;40.12
22580;BME280;11456;47.030;15.396;2023-09-07T09:26:21;98293.09;;;29.85;37.77
22580;BME280;11456;47.030;15.396;2023-09-07T09:28:51;98298.47;;;29.92;38.13
22580;BME280;11456;47.030;15.396;2023-09-07T09:31:19;98297.06;;;30.75;38.59
22580;BME280;11456;47.030;15.396;2023-09-07T09:33:49;98301.66;;;29.84;40.14
22580;BME280;11456;47.030;15.396;2023-09-07T09:36:20;98299.75;;;30.06;38.45
22580;BME280;11456;47.030;15.396;2023-09-07T09:38:51;98284.78;;;30.71;40.44
22580;BME280;11456;47.030;15.396;2023-09-07T09:41:20;98288.06;;;30.63;37.17
22580;BME280;11456;47.030;15.396;2023-09-07T09:43:50;98294.22;;;31.54;37.11
22580;BME280;11456;47.030;15.396;2023-09-07T09:46:18;98301.13;;;31.46;35.53
22580;BME280;11456;47.030;15.396;2023-09-07T09:48:45;98292.53;;;31.53;35.17
22580;BME280;11456;47.030;15.396;2023-09-07T09:51:12;98288.72;;;30.75;36.02
22580;BME280;11456;47.030;15.396;2023-09-07T09:53:42;98291.03;;;31.30;35.55
22580;BME280;11456;47.030;15.396;2023-09-07T09:56:08;98294.69;;;30.57;35.36
22580;BME280;11456;47.030;15.396;2023-09-07T09:58:35;98301.63;;;31.96;34.29
22580;BME280;11456;47.030;15.396;2023-09-07T10:01:04;98281.00;;;31.92;32.49
22580;BME280;11456;47.030;15.396;2023-09-07T10:03:34;98288.22;;;31.77;32.89
22580;BME280;11456;47.030;15.396;2023-09-07T10:06:10;98294.31;;;30.80;34.01
22580;BME280;11456;47.030;15.396;2023-09-07T10:08:37;98287.34;;;31.20;31.65
22580;BME280;11456;47.030;15.396;2023-09-07T10:11:08;98286.53;;;31.19;32.61
22580;BME280;11456;47.030;15.396;2023-09-07T10:13:36;98290.28;;;31.45;29.98
22580;BME280;11456;47.030;15.396;2023-09-07T10:16:04;98291.16;;;29.86;35.49
22580;BME280;11456;47.030;15.396;2023-09-07T10:18:35;98279.63;;;31.32;31.65
22580;BME280;11456;47.030;15.396;2023-09-07T10:21:02;98291.56;;;31.84;28.98
22580;BME280;11456;47.030;15.396;2023-09-07T10:26:03;98288.56;;;31.39;30.31
22580;BME280;11456;47.030;15.396;2023-09-07T10:28:33;98283.00;;;31.34;31.27
22580;BME280;11456;47.030;15.396;2023-09-07T10:31:04;98286.22;;;31.16;30.40
22580;BME280;11456;47.030;15.396;2023-09-07T10:33:33;98280.41;;;31.17;30.07
22580;BME280;11456;47.030;15.396;2023-09-07T10:36:01;98272.94;;;31.28;29.65
22580;BME280;11456;47.030;15.396;2023-09-07T10:38:35;98276.56;;;32.01;30.25
22580;BME280;11456;47.030;15.396;2023-09-07T10:41:04;98272.19;;;31.48;31.98
22580;BME280;11456;47.030;15.396;2023-09-07T10:43:32;98270.97;;;31.91;30.31
22580;BME280;11456;47.030;15.396;2023-09-07T10:46:00;98276.56;;;31.28;31.19
22580;BME280;11456;47.030;15.396;2023-09-07T10:48:29;98265.22;;;31.45;31.58
22580;BME280;11456;47.030;15.396;2023-09-07T10:50:56;98266.91;;;32.49;29.82
22580;BME280;11456;47.030;15.396;2023-09-07T10:53:28;98261.59;;;32.17;29.24
22580;BME280;11456;47.030;15.396;2023-09-07T10:56:02;98264.41;;;31.02;31.40
22580;BME280;11456;47.030;15.396;2023-09-07T10:58:31;98260.22;;;32.45;30.69
22580;BME280;11456;47.030;15.396;2023-09-07T11:00:59;98266.03;;;32.58;30.11
22580;BME280;11456;47.030;15.396;2023-09-07T11:03:27;98254.28;;;32.11;30.78
22580;BME280;11456;47.030;15.396;2023-09-07T11:06:04;98255.94;;;31.81;29.77
22580;BME280;11456;47.030;15.396;2023-09-07T11:08:33;98260.94;;;31.84;31.95
22580;BME280;11456;47.030;15.396;2023-09-07T11:11:02;98245.22;;;31.58;32.07
22580;BME280;11456;47.030;15.396;2023-09-07T11:13:29;98254.63;;;32.95;29.01
22580;BME280;11456;47.030;15.396;2023-09-07T11:15:57;98249.59;;;32.87;29.41
22580;BME280;11456;47.030;15.396;2023-09-07T11:18:25;98245.50;;;33.49;27.48
22580;BME280;11456;47.030;15.396;2023-09-07T11:20:53;98238.72;;;32.30;28.76
22580;BME280;11456;47.030;15.396;2023-09-07T11:23:21;98235.09;;;32.35;28.57
22580;BME280;11456;47.030;15.396;2023-09-07T11:25:49;98240.84;;;31.72;30.90
22580;BME280;11456;47.030;15.396;2023-09-07T11:28:18;98229.81;;;32.43;30.80
22580;BME280;11456;47.030;15.396;2023-09-07T11:30:53;98235.63;;;32.92;28.59
22580;BME280;11456;47.030;15.396;2023-09-07T11:33:22;98230.94;;;34.11;27.63
22580;BME280;11456;47.030;15.396;2023-09-07T11:35:48;98230.34;;;32.15;32.16
22580;BME280;11456;47.030;15.396;2023-09-07T11:38:16;98221.66;;;31.91;29.85
22580;BME280;11456;47.030;15.396;2023-09-07T11:40:44;98223.38;;;31.25;31.03
22580;BME280;11456;47.030;15.396;2023-09-07T11:43:15;98214.50;;;31.33;32.72
22580;BME280;11456;47.030;15.396;2023-09-07T11:45:44;98213.06;;;32.13;30.03
22580;BME280;11456;47.030;15.396;2023-09-07T11:48:11;98210.78;;;31.79;30.21
22580;BME280;11456;47.030;15.396;2023-09-07T11:50:38;98209.41;;;31.92;30.29
22580;BME280;11456;47.030;15.396;2023-09-07T11:53:07;98216.63;;;31.83;30.08
22580;BME280;11456;47.030;15.396;2023-09-07T11:55:35;98220.56;;;31.15;30.68
22580;BME280;11456;47.030;15.396;2023-09-07T11:58:04;98225.34;;;32.37;30.50
22580;BME280;11456;47.030;15.396;2023-09-07T12:00:31;98224.34;;;33.38;29.35
22580;BME280;11456;47.030;15.396;2023-09-07T12:02:58;98216.03;;;33.28;27.15
22580;BME280;11456;47.030;15.396;2023-09-07T12:05:25;98213.63;;;32.81;28.54
22580;BME280;11456;47.030;15.396;2023-09-07T12:07:52;98213.13;;;31.35;31.79
22580;BME280;11456;47.030;15.396;2023-09-07T12:10:19;98211.97;;;32.24;29.85
22580;BME280;11456;47.030;15.396;2023-09-07T12:12:47;98208.31;;;32.74;29.13
22580;BME280;11456;47.030;15.396;2023-09-07T12:15:13;98201.34;;;32.72;28.85
22580;BME280;11456;47.030;15.396;2023-09-07T12:17:40;98212.28;;;29.87;32.93
22580;BME280;11456;47.030;15.396;2023-09-07T12:20:08;98206.13;;;31.28;31.72
22580;BME280;11456;47.030;15.396;2023-09-07T12:22:37;98212.88;;;31.42;30.68
22580;BME280;11456;47.030;15.396;2023-09-07T12:25:05;98194.66;;;32.62;29.56
22580;BME280;11456;47.030;15.396;2023-09-07T12:27:41;98192.59;;;33.19;28.32
22580;BME280;11456;47.030;15.396;2023-09-07T12:30:18;98186.69;;;30.86;32.17
22580;BME280;11456;47.030;15.396;2023-09-07T12:32:46;98188.53;;;32.15;29.23
22580;BME280;11456;47.030;15.396;2023-09-07T12:35:14;98185.78;;;32.25;28.72
22580;BME280;11456;47.030;15.396;2023-09-07T12:37:42;98187.06;;;32.93;28.04
22580;BME280;11456;47.030;15.396;2023-09-07T12:40:09;98177.34;;;31.95;29.76
22580;BME280;11456;47.030;15.396;2023-09-07T12:42:41;98181.31;;;30.69;31.88
22580;BME280;11456;47.030;15.396;2023-09-07T12:45:09;98180.84;;;30.82;31.58
22580;BME280;11456;47.030;15.396;2023-09-07T12:47:38;98173.22;;;31.10;31.43
22580;BME280;11456;47.030;15.396;2023-09-07T12:50:05;98171.44;;;31.56;30.41
22580;BME280;11456;47.030;15.396;2023-09-07T12:52:34;98168.47;;;32.33;28.54